createdAt,value
2022-09-26T00:01:22.694Z,72.69
2022-09-26T00:03:51.286Z,72.74
2022-09-26T00:06:18.748Z,72.87
2022-09-26T00:08:46.980Z,72.89
2022-09-26T00:11:16.641Z,72.58
2022-09-26T00:13:43.868Z,72.79
2022-09-26T00:16:11.546Z,72.58
2022-09-26T00:18:39.196Z,72.81
2022-09-26T00:21:08.325Z,72.82
2022-09-26T00:23:35.369Z,72.75
2022-09-26T00:26:02.390Z,72.79
2022-09-26T00:28:29.271Z,72.73
2022-09-26T00:30:56.765Z,73.06
2022-09-26T00:33:24.263Z,72.98
2022-09-26T00:35:52.212Z,72.61
2022-09-26T00:38:19.201Z,73.09
2022-09-26T00:40:46.683Z,72.86
2022-09-26T00:43:32.776Z,72.90
2022-09-26T00:46:37.608Z,72.96
2022-09-26T00:49:48.100Z,72.88
2022-09-26T00:52:31.130Z,72.88
2022-09-26T00:54:59.128Z,72.83
2022-09-26T00:57:33.518Z,73.11
2022-09-26T01:00:03.966Z,73.15
2022-09-26T01:02:31.082Z,73.37
2022-09-26T01:04:58.559Z,73.27
2022-09-26T01:07:27.191Z,73.45
2022-09-26T01:09:54.267Z,73.46
2022-09-26T01:12:21.254Z,73.64
2022-09-26T01:14:50.557Z,74.02
2022-09-26T01:17:17.430Z,73.80
2022-09-26T01:19:56.887Z,73.70
2022-09-26T01:22:45.446Z,74.32
2022-09-26T01:25:49.805Z,74.11
2022-09-26T01:28:53.809Z,74.05
2022-09-26T01:32:06.208Z,74.11
2022-09-26T01:34:58.173Z,74.49
2022-09-26T01:37:37.336Z,74.14
2022-09-26T01:40:32.016Z,74.46
2022-09-26T01:43:24.032Z,74.36
2022-09-26T01:45:55.029Z,74.35
2022-09-26T01:48:26.776Z,74.30
2022-09-26T01:50:58.206Z,74.31
2022-09-26T01:53:29.765Z,74.40
2022-09-26T01:56:04.313Z,74.73
2022-09-26T01:58:39.905Z,74.83
2022-09-26T02:01:10.639Z,74.97
2022-09-26T02:03:40.505Z,74.96
2022-09-26T02:06:12.860Z,75.18
2022-09-26T02:08:46.453Z,75.28
2022-09-26T02:11:15.268Z,75.19
2022-09-26T02:14:02.574Z,75.44
2022-09-26T02:16:32.713Z,75.22
2022-09-26T02:19:15.381Z,75.83
2022-09-26T02:21:42.626Z,75.67
2022-09-26T02:24:09.607Z,76.20
2022-09-26T02:26:36.499Z,76.13
2022-09-26T02:29:03.357Z,76.23
2022-09-26T02:31:33.149Z,76.51
2022-09-26T02:34:00.097Z,76.68
2022-09-26T02:36:27.167Z,76.47
2022-09-26T02:38:54.042Z,76.83
2022-09-26T02:41:31.987Z,76.79
2022-09-26T02:44:31.116Z,76.81
2022-09-26T02:47:04.309Z,76.97
2022-09-26T02:50:08.963Z,76.95
2022-09-26T02:52:58.280Z,77.08
2022-09-26T02:55:26.805Z,77.30
2022-09-26T02:58:14.890Z,77.32
2022-09-26T03:01:10.172Z,77.52
2022-09-26T03:03:52.125Z,77.56
2022-09-26T03:06:20.877Z,77.62
2022-09-26T03:08:48.856Z,77.91
2022-09-26T03:11:22.021Z,77.69
2022-09-26T03:13:48.914Z,77.72
2022-09-26T03:16:16.083Z,77.72
2022-09-26T03:18:53.402Z,77.86
2022-09-26T03:21:20.539Z,78.16
2022-09-26T03:23:47.520Z,78.09
2022-09-26T03:26:16.678Z,78.08
2022-09-26T03:28:44.527Z,77.95
2022-09-26T03:31:11.473Z,78.27
2022-09-26T03:33:38.926Z,78.04
2022-09-26T03:36:07.037Z,78.30
2022-09-26T03:38:33.965Z,78.26
2022-09-26T03:41:00.880Z,78.10
2022-09-26T03:43:27.867Z,78.03
2022-09-26T03:45:55.264Z,78.13
2022-09-26T03:48:22.407Z,78.20
2022-09-26T03:50:49.273Z,78.33
2022-09-26T03:53:16.238Z,77.97
2022-09-26T03:55:43.171Z,78.13
2022-09-26T03:58:10.221Z,78.12
2022-09-26T04:00:38.610Z,78.05
2022-09-26T04:03:05.926Z,78.01
2022-09-26T04:05:32.799Z,78.14
2022-09-26T04:08:00.704Z,78.27
2022-09-26T04:10:27.819Z,78.42
2022-09-26T04:12:54.706Z,77.94
2022-09-26T04:15:21.662Z,77.98
2022-09-26T04:17:48.710Z,78.01
2022-09-26T04:20:15.671Z,78.01
2022-09-26T04:22:42.550Z,78.15
2022-09-26T04:25:10.326Z,77.93
2022-09-26T04:27:38.122Z,77.79
2022-09-26T04:30:05.401Z,77.80
2022-09-26T04:32:32.286Z,77.88
2022-09-26T04:34:59.225Z,77.77
2022-09-26T04:37:26.167Z,77.59
2022-09-26T04:39:53.120Z,77.42
2022-09-26T04:42:20.031Z,77.16
2022-09-26T04:44:48.281Z,77.26
2022-09-26T04:47:15.193Z,77.06
2022-09-26T04:49:43.070Z,77.16
2022-09-26T04:52:10.893Z,76.96
2022-09-26T04:54:38.503Z,76.86
2022-09-26T04:57:05.816Z,76.66
2022-09-26T04:59:32.989Z,76.67
2022-09-26T05:02:00.859Z,76.51
2022-09-26T05:04:28.037Z,76.56
2022-09-26T05:06:57.925Z,76.73
2022-09-26T05:09:25.345Z,76.54
2022-09-26T05:11:52.412Z,76.31
2022-09-26T05:14:19.397Z,76.43
2022-09-26T05:16:47.247Z,76.49
2022-09-26T05:19:14.431Z,76.51
2022-09-26T05:21:43.177Z,76.33
2022-09-26T05:24:28.658Z,76.40
2022-09-26T05:26:55.944Z,76.18
2022-09-26T05:29:22.915Z,76.47
2022-09-26T05:31:51.581Z,76.42
2022-09-26T05:34:20.073Z,76.30
2022-09-26T05:36:47.562Z,76.49
2022-09-26T05:39:33.175Z,76.49
2022-09-26T05:42:00.144Z,76.55
2022-09-26T05:44:27.508Z,76.43
2022-09-26T05:46:55.211Z,76.54
2022-09-26T05:49:22.183Z,76.38
2022-09-26T05:51:49.314Z,76.56
2022-09-26T05:54:16.640Z,76.44
2022-09-26T05:56:43.506Z,76.63
2022-09-26T05:59:10.388Z,76.71
2022-09-26T06:01:37.369Z,76.44
2022-09-26T06:04:04.353Z,76.62
2022-09-26T06:06:31.230Z,76.66
2022-09-26T06:08:58.128Z,76.40
2022-09-26T06:11:30.717Z,76.51
2022-09-26T06:13:59.335Z,76.27
2022-09-26T06:16:26.414Z,76.33
2022-09-26T06:18:55.780Z,76.19
2022-09-26T06:21:23.261Z,76.01
2022-09-26T06:23:50.253Z,75.97
2022-09-26T06:26:21.246Z,75.90
2022-09-26T06:28:50.068Z,75.92
2022-09-26T06:31:18.320Z,75.92
2022-09-26T06:33:50.054Z,75.95
2022-09-26T06:36:17.266Z,75.84
2022-09-26T06:38:44.198Z,76.12
2022-09-26T06:41:11.068Z,75.71
2022-09-26T06:43:39.077Z,75.86
2022-09-26T06:46:09.578Z,75.89
2022-09-26T06:48:36.586Z,75.70
2022-09-26T06:51:03.457Z,75.69
2022-09-26T06:53:31.018Z,75.64
2022-09-26T06:56:01.181Z,75.64
2022-09-26T06:58:28.098Z,75.80
2022-09-26T07:00:55.126Z,75.76
2022-09-26T07:03:25.380Z,75.66
2022-09-26T07:05:55.228Z,75.58
2022-09-26T07:08:37.383Z,75.66
2022-09-26T07:11:31.190Z,75.59
2022-09-26T07:13:56.110Z,75.56
2022-09-26T07:16:23.056Z,75.58
2022-09-26T07:18:50.027Z,75.54
2022-09-26T07:21:16.883Z,75.42
2022-09-26T07:23:43.800Z,75.35
2022-09-26T07:26:10.882Z,75.37
2022-09-26T07:28:38.589Z,75.21
2022-09-26T07:31:05.765Z,75.39
2022-09-26T07:33:32.700Z,75.49
2022-09-26T07:36:03.176Z,75.21
2022-09-26T07:38:32.239Z,75.26
2022-09-26T07:41:00.936Z,75.13
2022-09-26T07:43:53.600Z,75.27
2022-09-26T07:46:33.631Z,75.11
2022-09-26T07:49:19.328Z,75.19
2022-09-26T07:51:46.227Z,75.08
2022-09-26T07:54:13.181Z,75.24
2022-09-26T07:56:40.398Z,75.05
2022-09-26T07:59:07.282Z,75.02
2022-09-26T08:01:37.714Z,75.43
2022-09-26T08:04:06.424Z,75.24
2022-09-26T08:06:35.045Z,75.01
2022-09-26T08:09:02.001Z,75.19
2022-09-26T08:11:29.075Z,75.20
2022-09-26T08:13:55.939Z,74.79
2022-09-26T08:16:25.980Z,75.09
2022-09-26T08:18:54.178Z,74.97
2022-09-26T08:21:21.500Z,74.80
2022-09-26T08:23:48.408Z,74.99
2022-09-26T08:26:15.396Z,74.99
2022-09-26T08:28:42.737Z,75.12
2022-09-26T08:31:10.222Z,75.06
2022-09-26T08:33:40.693Z,75.03
2022-09-26T08:36:12.152Z,75.12
2022-09-26T08:38:39.164Z,75.06
2022-09-26T08:41:32.614Z,75.01
2022-09-26T08:44:24.362Z,75.18
2022-09-26T08:47:02.589Z,75.34
2022-09-26T08:49:44.324Z,75.26
2022-09-26T08:52:38.173Z,75.34
2022-09-26T08:55:20.217Z,75.23
2022-09-26T08:57:54.127Z,75.34
2022-09-26T09:00:26.087Z,75.27
2022-09-26T09:03:01.357Z,75.27
2022-09-26T09:05:41.776Z,75.37
2022-09-26T09:08:22.272Z,75.41
2022-09-26T09:11:07.937Z,75.26
2022-09-26T09:14:01.025Z,75.36
2022-09-26T09:16:53.321Z,75.10
2022-09-26T09:19:34.079Z,75.23
2022-09-26T09:22:29.605Z,75.51
2022-09-26T09:25:01.485Z,75.36
2022-09-26T09:30:31.710Z,75.85
2022-09-26T09:33:03.221Z,76.10
2022-09-26T09:35:39.040Z,76.69
2022-09-26T09:38:06.908Z,76.71
2022-09-26T09:40:42.321Z,76.77
2022-09-26T09:43:26.101Z,77.12
2022-09-26T09:45:55.843Z,77.35
2022-09-26T09:48:25.797Z,77.74
2022-09-26T09:51:10.594Z,77.64
2022-09-26T09:54:05.195Z,77.99
2022-09-26T09:56:36.629Z,78.00
2022-09-26T09:59:15.487Z,78.32
2022-09-26T10:01:43.100Z,78.47
2022-09-26T10:04:31.855Z,78.31
2022-09-26T10:07:00.176Z,78.66
2022-09-26T10:09:35.339Z,78.88
2022-09-26T10:12:14.157Z,78.81
2022-09-26T10:14:46.432Z,78.99
2022-09-26T10:17:15.405Z,79.16
2022-09-26T10:19:43.509Z,79.27
2022-09-26T10:22:29.403Z,79.48
2022-09-26T10:25:03.755Z,79.41
2022-09-26T10:27:38.119Z,79.49
2022-09-26T10:30:20.311Z,79.62
2022-09-26T10:32:50.784Z,79.76
2022-09-26T10:35:24.132Z,79.93
2022-09-26T10:38:06.867Z,80.01
2022-09-26T10:40:47.179Z,80.18
2022-09-26T10:43:21.134Z,80.34
2022-09-26T10:45:55.552Z,80.47
2022-09-26T10:48:26.888Z,80.50
2022-09-26T10:50:55.741Z,80.59
2022-09-26T10:53:23.296Z,80.96
2022-09-26T10:55:53.325Z,81.17
2022-09-26T10:58:24.086Z,81.46
2022-09-26T11:00:51.776Z,81.23
2022-09-26T11:03:33.159Z,81.55
2022-09-26T11:06:00.352Z,81.72
2022-09-26T11:08:32.029Z,81.41
2022-09-26T11:11:00.424Z,81.63
2022-09-26T11:13:31.841Z,81.48
2022-09-26T11:16:03.101Z,81.52
2022-09-26T11:18:45.086Z,81.77
2022-09-26T11:21:29.278Z,81.95
2022-09-26T11:24:42.908Z,81.67
2022-09-26T11:27:19.482Z,82.01
2022-09-26T11:30:00.011Z,81.78
2022-09-26T11:32:41.423Z,82.06
2022-09-26T11:35:33.415Z,81.85
2022-09-26T11:38:22.252Z,81.71
2022-09-26T11:40:58.077Z,81.83
2022-09-26T11:43:37.777Z,82.17
2022-09-26T11:46:14.953Z,82.18
2022-09-26T11:49:15.411Z,82.13
2022-09-26T11:52:07.320Z,82.21
2022-09-26T11:54:58.911Z,82.17
2022-09-26T11:57:34.154Z,82.03
2022-09-26T12:00:24.693Z,82.09
2022-09-26T12:03:15.783Z,82.44
2022-09-26T12:06:13.539Z,82.21
2022-09-26T12:09:02.095Z,82.44
2022-09-26T12:11:37.640Z,82.39
2022-09-26T12:14:43.057Z,82.40
2022-09-26T12:17:19.678Z,82.61
2022-09-26T12:20:12.625Z,82.48
2022-09-26T12:23:21.068Z,82.50
2022-09-26T12:26:09.648Z,82.90
2022-09-26T12:28:56.401Z,82.87
2022-09-26T12:32:00.787Z,82.80
2022-09-26T12:34:45.775Z,83.10
2022-09-26T12:37:39.321Z,82.89
2022-09-26T12:40:18.286Z,83.31
2022-09-26T12:43:05.041Z,83.20
2022-09-26T12:45:53.956Z,83.33
2022-09-26T12:48:54.559Z,83.25
2022-09-26T12:51:42.742Z,83.41
2022-09-26T12:54:41.875Z,83.49
2022-09-26T12:57:18.936Z,83.63
2022-09-26T13:00:09.453Z,83.66
2022-09-26T13:02:43.564Z,84.07
2022-09-26T13:05:45.020Z,83.87
2022-09-26T13:08:44.012Z,84.17
2022-09-26T13:11:23.260Z,84.11
2022-09-26T13:14:12.391Z,83.93
2022-09-26T13:16:39.532Z,83.96
2022-09-26T13:19:30.509Z,83.38
2022-09-26T13:21:59.587Z,83.58
2022-09-26T13:24:47.270Z,83.44
2022-09-26T13:27:17.971Z,83.56
2022-09-26T13:29:47.785Z,83.95
2022-09-26T13:32:25.429Z,83.48
2022-09-26T13:35:13.495Z,83.81
2022-09-26T13:37:49.040Z,83.56
2022-09-26T13:40:33.988Z,83.72
2022-09-26T13:43:43.613Z,83.68
2022-09-26T13:46:16.194Z,83.94
2022-09-26T13:48:50.203Z,84.05
2022-09-26T13:51:25.684Z,83.83
2022-09-26T13:54:16.769Z,83.78
2022-09-26T13:56:46.945Z,83.73
2022-09-26T13:59:19.576Z,83.94
2022-09-26T14:02:18.611Z,83.87
2022-09-26T14:04:50.280Z,84.05
2022-09-26T14:07:37.738Z,84.01
2022-09-26T14:10:19.997Z,84.14
2022-09-26T14:12:52.762Z,84.16
2022-09-26T14:15:28.422Z,84.05
2022-09-26T14:18:02.716Z,83.86
2022-09-26T14:20:33.227Z,84.33
2022-09-26T14:23:00.584Z,84.10
2022-09-26T14:25:45.702Z,84.08
2022-09-26T14:28:33.870Z,84.32
2022-09-26T14:31:33.318Z,83.75
2022-09-26T14:34:19.427Z,84.30
2022-09-26T14:36:46.866Z,84.41
2022-09-26T14:39:40.885Z,84.55
2022-09-26T14:42:15.883Z,84.45
2022-09-26T14:44:50.212Z,84.60
2022-09-26T14:47:17.088Z,84.53
2022-09-26T14:49:45.657Z,84.69
2022-09-26T14:52:17.056Z,84.46
2022-09-26T14:54:43.922Z,84.48
2022-09-26T14:57:21.357Z,84.45
2022-09-26T14:59:48.543Z,84.87
2022-09-26T15:02:20.537Z,84.68
2022-09-26T15:05:19.582Z,84.84
2022-09-26T15:07:48.139Z,84.51
2022-09-26T15:10:26.969Z,84.60
2022-09-26T15:13:03.460Z,84.80
2022-09-26T15:15:51.046Z,84.77
2022-09-26T15:18:29.976Z,84.44
2022-09-26T15:21:20.408Z,84.94
2022-09-26T15:23:52.361Z,84.95
2022-09-26T15:26:25.400Z,84.83
2022-09-26T15:28:52.540Z,85.01
2022-09-26T15:31:24.816Z,85.02
2022-09-26T15:33:57.489Z,84.68
2022-09-26T15:36:30.769Z,84.81
2022-09-26T15:38:58.015Z,85.16
2022-09-26T15:41:43.457Z,85.21
2022-09-26T15:44:22.563Z,85.01
2022-09-26T15:46:50.143Z,84.96
2022-09-26T15:49:24.604Z,84.94
2022-09-26T15:51:53.675Z,85.09
2022-09-26T15:54:27.093Z,85.10
2022-09-26T15:56:54.888Z,84.94
2022-09-26T15:59:36.308Z,85.14
2022-09-26T16:02:23.506Z,84.91
2022-09-26T16:04:51.860Z,84.79
2022-09-26T16:07:20.747Z,85.01
2022-09-26T16:09:48.166Z,84.99
2022-09-26T16:12:15.421Z,84.87
2022-09-26T16:14:46.513Z,84.82
2022-09-26T16:17:38.751Z,84.92
2022-09-26T16:20:11.435Z,85.09
2022-09-26T16:23:04.455Z,84.81
2022-09-26T16:25:35.510Z,84.96
2022-09-26T16:28:05.286Z,85.04
2022-09-26T16:30:31.999Z,85.32
2022-09-26T16:33:04.956Z,85.23
2022-09-26T16:35:33.572Z,85.42
2022-09-26T16:38:17.094Z,85.30
2022-09-26T16:40:50.686Z,85.31
2022-09-26T16:43:28.694Z,85.08
2022-09-26T16:46:14.674Z,85.01
2022-09-26T16:48:50.489Z,84.80
2022-09-26T16:51:21.413Z,84.79
2022-09-26T16:53:55.840Z,84.81
2022-09-26T16:56:23.973Z,84.78
2022-09-26T16:59:24.403Z,84.59
2022-09-26T17:01:56.690Z,84.68
2022-09-26T17:04:25.122Z,84.93
2022-09-26T17:06:52.049Z,84.57
2022-09-26T17:09:21.283Z,84.62
2022-09-26T17:11:50.233Z,84.64
2022-09-26T17:14:19.418Z,84.52
2022-09-26T17:16:47.839Z,84.22
2022-09-26T17:19:15.234Z,84.57
2022-09-26T17:21:42.408Z,84.49
2022-09-26T17:24:14.209Z,84.43
2022-09-26T17:26:43.679Z,84.19
2022-09-26T17:29:17.096Z,83.99
2022-09-26T17:31:43.993Z,84.29
2022-09-26T17:34:14.038Z,83.95
2022-09-26T17:36:44.132Z,84.21
2022-09-26T17:39:13.668Z,83.94
2022-09-26T17:41:40.577Z,83.63
2022-09-26T17:44:07.448Z,83.77
2022-09-26T17:46:37.473Z,83.58
2022-09-26T17:49:06.632Z,83.48
2022-09-26T17:51:33.575Z,83.46
2022-09-26T17:54:00.447Z,83.60
2022-09-26T17:56:27.408Z,83.72
2022-09-26T17:58:55.473Z,83.58
2022-09-26T18:01:23.806Z,83.38
2022-09-26T18:03:51.599Z,83.56
2022-09-26T18:06:18.501Z,83.66
2022-09-26T18:08:45.601Z,83.60
2022-09-26T18:11:17.459Z,83.63
2022-09-26T18:13:52.372Z,83.42
2022-09-26T18:16:19.321Z,83.57
2022-09-26T18:18:47.336Z,83.71
2022-09-26T18:21:17.257Z,83.34
2022-09-26T18:23:52.257Z,83.52
2022-09-26T18:26:25.005Z,83.68
2022-09-26T18:28:51.887Z,83.66
2022-09-26T18:31:20.011Z,83.67
2022-09-26T18:33:47.108Z,84.10
2022-09-26T18:36:14.157Z,83.90
2022-09-26T18:38:41.421Z,83.87
2022-09-26T18:41:09.322Z,83.53
2022-09-26T18:43:42.393Z,83.87
2022-09-26T18:46:12.245Z,83.65
2022-09-26T18:48:39.208Z,83.57
2022-09-26T18:51:06.123Z,83.67
2022-09-26T18:53:37.397Z,83.88
2022-09-26T18:56:26.993Z,83.71
2022-09-26T18:58:53.940Z,83.47
2022-09-26T19:01:28.178Z,83.43
2022-09-26T19:03:56.064Z,83.55
2022-09-26T19:06:34.817Z,83.30
2022-09-26T19:09:06.173Z,83.41
2022-09-26T19:11:34.500Z,83.42
2022-09-26T19:14:16.409Z,83.80
2022-09-26T19:16:44.037Z,83.45
2022-09-26T19:19:10.901Z,83.38
2022-09-26T19:21:42.179Z,83.53
2022-09-26T19:24:31.166Z,83.39
2022-09-26T19:27:06.612Z,83.31
2022-09-26T19:30:06.606Z,83.24
2022-09-26T19:32:38.016Z,83.46
2022-09-26T19:35:07.421Z,83.79
2022-09-26T19:37:34.327Z,83.47
2022-09-26T19:40:01.783Z,83.56
2022-09-26T19:42:28.657Z,83.18
2022-09-26T19:44:56.444Z,83.07
2022-09-26T19:47:23.528Z,83.08
2022-09-26T19:49:51.470Z,82.89
2022-09-26T19:52:19.917Z,83.07
2022-09-26T19:54:46.904Z,82.78
2022-09-26T19:57:18.233Z,82.84
2022-09-26T19:59:45.968Z,82.84
2022-09-26T20:02:21.041Z,82.96
2022-09-26T20:04:48.180Z,82.75
2022-09-26T20:07:19.458Z,82.63
2022-09-26T20:09:46.742Z,82.75
2022-09-26T20:12:13.993Z,82.56
2022-09-26T20:14:41.005Z,82.41
2022-09-26T20:17:29.260Z,82.67
2022-09-26T20:19:59.109Z,82.84
2022-09-26T20:22:26.194Z,82.62
2022-09-26T20:24:54.986Z,82.54
2022-09-26T20:27:23.597Z,82.32
2022-09-26T20:30:09.356Z,82.75
2022-09-26T20:32:36.746Z,82.86
2022-09-26T20:35:04.842Z,82.72
2022-09-26T20:37:33.331Z,82.79
2022-09-26T20:40:00.411Z,82.86
2022-09-26T20:42:28.156Z,83.25
2022-09-26T20:44:55.024Z,83.18
2022-09-26T20:47:21.918Z,83.22
2022-09-26T20:49:57.288Z,83.08
2022-09-26T20:52:28.332Z,83.25
2022-09-26T20:54:56.145Z,83.49
2022-09-26T20:57:23.892Z,83.60
2022-09-26T20:59:51.121Z,83.39
2022-09-26T21:02:28.377Z,83.28
2022-09-26T21:04:56.098Z,83.38
2022-09-26T21:07:24.043Z,83.21
2022-09-26T21:09:50.977Z,83.05
2022-09-26T21:12:18.605Z,82.84
2022-09-26T21:14:45.553Z,82.69
2022-09-26T21:17:30.337Z,82.53
2022-09-26T21:19:57.468Z,82.61
2022-09-26T21:22:25.696Z,82.45
2022-09-26T21:24:54.135Z,82.49
2022-09-26T21:27:21.094Z,82.54
2022-09-26T21:29:47.966Z,82.42
2022-09-26T21:32:17.149Z,82.20
2022-09-26T21:34:58.228Z,82.22
2022-09-26T21:37:25.171Z,82.43
2022-09-26T21:39:52.052Z,82.58
2022-09-26T21:42:19.004Z,82.55
2022-09-26T21:44:48.299Z,82.69
2022-09-26T21:47:15.580Z,82.69
2022-09-26T21:49:42.445Z,82.50
2022-09-26T21:52:15.179Z,82.60
2022-09-26T21:54:43.523Z,82.58
2022-09-26T21:57:13.169Z,82.68
2022-09-26T21:59:40.205Z,82.64
2022-09-26T22:02:07.187Z,82.60
2022-09-26T22:04:35.003Z,82.65
2022-09-26T22:07:01.936Z,82.50
2022-09-26T22:09:28.792Z,82.50
2022-09-26T22:11:55.762Z,82.52
2022-09-26T22:14:22.632Z,82.65
2022-09-26T22:16:49.582Z,82.72
2022-09-26T22:19:16.816Z,82.57
2022-09-26T22:21:43.799Z,82.47
2022-09-26T22:24:11.164Z,82.37
2022-09-26T22:26:38.124Z,82.50
2022-09-26T22:29:05.552Z,82.49
2022-09-26T22:31:32.436Z,82.44
2022-09-26T22:33:59.543Z,82.62
2022-09-26T22:36:27.376Z,82.56
2022-09-26T22:38:54.934Z,82.67
2022-09-26T22:41:21.836Z,82.51
2022-09-26T22:43:49.351Z,82.53
2022-09-26T22:46:16.519Z,82.39
2022-09-26T22:48:46.151Z,82.50
2022-09-26T22:51:14.435Z,82.67
2022-09-26T22:53:41.919Z,82.50
2022-09-26T22:56:11.835Z,82.56
2022-09-26T22:58:40.988Z,82.72
2022-09-26T23:01:10.017Z,82.80
2022-09-26T23:03:37.269Z,82.66
2022-09-26T23:06:04.681Z,82.90
2022-09-26T23:08:35.153Z,82.74
2022-09-26T23:11:02.784Z,82.68
2022-09-26T23:13:32.433Z,82.64
2022-09-26T23:16:10.318Z,82.48
2022-09-26T23:18:39.423Z,82.48
2022-09-26T23:21:10.899Z,82.49
2022-09-26T23:23:37.968Z,82.40
2022-09-26T23:26:06.184Z,82.21
2022-09-26T23:28:42.797Z,82.14
2022-09-26T23:31:10.894Z,81.88
2022-09-26T23:33:38.228Z,82.16
2022-09-26T23:36:05.852Z,81.89
2022-09-26T23:38:32.952Z,81.83
2022-09-26T23:40:59.986Z,82.02
2022-09-26T23:43:26.908Z,82.10
2022-09-26T23:45:53.922Z,82.10
2022-09-26T23:48:20.869Z,81.81
2022-09-26T23:50:47.744Z,81.95
2022-09-26T23:53:15.244Z,82.10
2022-09-26T23:55:42.541Z,82.09
2022-09-26T23:58:09.857Z,82.06
